Historique des mesures à Cassis (13260), France
Quotidien Résumé Octobre 11, 2018 Unités:  US    Métrique   Métrique/US
« Précédent (Jour)
Suivant (Jour) »
Quotidien Hebdomadaire Mensuel Annuel Période au choix
  Maximum: Minimum: Moyenne:
Température: 32 °F 63.3 °F 66 °F
Point de rosée: 32 °F 59.9 °F 60.6 °F
Humidité: Humidity % 75 % 79 %
Vitesse du vent: WindSpeedKMH mph 0.0 mph 5.4 mph
Rafales: WindSpeedGustKMH mph - -
Vent:- - ESE
Pression: 0 in 29.8 in -
Précipitations: 129.54 in    
Historical Graphs
 
 
Mesures pour : Octobre 11, 2018
Heure Temperature Point de rosée Pression Vent Vitesse du vent Rafales Humidité Pluie (par heure) Conditions
32 °F 32 °F 0 in Calm     Humidity % 0 in SoftwareType W/m2
00:10 63.3 °F 60.4 °F 29.8 in ESE 16.9 mph 23.0 mph 90 % 91.44 in open2300-1.11 W/m2
01:10 63.3 °F 60.4 °F 29.8 in ESE 7.2 mph 7.2 mph 90 % 76.2 in open2300-1.11 W/m2
02:10 63.3 °F 60.4 °F 29.8 in SSE 6.1 mph 12.6 mph 90 % 25.4 in open2300-1.11 W/m2
03:10 64 °F 61.2 °F 29.8 in ESE 6.1 mph 8.3 mph 90 % 0 in open2300-1.11 W/m2
04:10 64.2 °F 60.6 °F 29.8 in SE 12.2 mph 12.2 mph 88 % 0 in open2300-1.11 W/m2
05:10 64.2 °F 60.3 °F 29.8 in NE 3.6 mph 4.0 mph 87 % 0 in open2300-1.11 W/m2
06:10 64.8 °F 60.8 °F 29.8 in ESE 6.1 mph 6.1 mph 87 % 0 in open2300-1.11 W/m2
07:10 64.6 °F 60.6 °F 29.8 in SE 22.7 mph 22.7 mph 87 % 0 in open2300-1.11 W/m2
08:10 64.6 °F 60.3 °F 29.8 in ESE 5.0 mph 6.5 mph 86 % 0 in open2300-1.11 W/m2
09:10 65.8 °F 61.2 °F 29.8 in SE 4.7 mph 8.3 mph 85 % 0 in open2300-1.11 W/m2
10:10 67.3 °F 62.2 °F 29.9 in Calm   9.4 mph 84 % 0 in open2300-1.11 W/m2
11:10 68.2 °F 62.8 °F 29.9 in ESE 1.4 mph 3.6 mph 83 % 0 in open2300-1.11 W/m2
12:10 69.6 °F 63.1 °F 29.9 in SSE 4.3 mph 9.0 mph 80 % 0 in open2300-1.11 W/m2
13:10 71.8 °F 64.2 °F 29.9 in ESE 2.9 mph 7.6 mph 77 % 0 in open2300-1.11 W/m2
14:10 72.1 °F 64.2 °F 29.9 in NE 3.2 mph 3.2 mph 76 % 0 in open2300-1.11 W/m2
15:10 73 °F 64.6 °F 29.9 in East 2.2 mph 4.0 mph 75 % 0 in open2300-1.11 W/m2
16:10 73.8 °F 65.3 °F 29.9 in ESE 4.7 mph 4.7 mph 75 % 0 in open2300-1.11 W/m2
17:10 72.1 °F 64.2 °F 29.9 in East 2.5 mph 4.0 mph 76 % 0 in open2300-1.11 W/m2
18:10 70.9 °F 63 °F 29.9 in East 7.6 mph 7.6 mph 76 % 0 in open2300-1.11 W/m2
19:10 69.1 °F 61.5 °F 29.9 in Calm   4.3 mph 77 % 0 in open2300-1.11 W/m2
20:10 67.6 °F 60.6 °F 30 in SW 4.7 mph 4.7 mph 78 % 0 in open2300-1.11 W/m2
21:10 67.1 °F 60.8 °F 30 in ESE 2.9 mph 2.9 mph 80 % 0 in open2300-1.11 W/m2
22:10 66.9 °F 60.6 °F 30 in SSE 5.8 mph 5.8 mph 80 % 0 in open2300-1.11 W/m2
23:10 66.2 °F 59.9 °F 30 in NE 2.2 mph 3.2 mph 80 % 0 in open2300-1.11 W/m2
Observations météo à CASSIS
WU-History script by Weather Underground - 1 mb